sensor_id;sensor_type;location;lat;lon;timestamp;pressure;altitude;pressure_sealevel;temperature;humidity
28310;BME280;15571;50.974;13.936;2023-03-18T00:00:14;99826.94;;;7.72;65.59
28310;BME280;15571;50.974;13.936;2023-03-18T00:03:18;99828.69;;;7.69;65.41
28310;BME280;15571;50.974;13.936;2023-03-18T00:06:23;99829.56;;;7.68;65.58
28310;BME280;15571;50.974;13.936;2023-03-18T00:09:25;99821.72;;;7.64;65.45
28310;BME280;15571;50.974;13.936;2023-03-18T00:12:31;99825.22;;;7.63;65.44
28310;BME280;15571;50.974;13.936;2023-03-18T00:15:34;99827.81;;;7.60;65.50
28310;BME280;15571;50.974;13.936;2023-03-18T00:18:37;99828.69;;;7.58;66.16
28310;BME280;15571;50.974;13.936;2023-03-18T00:21:40;99820.00;;;7.53;66.35
28310;BME280;15571;50.974;13.936;2023-03-18T00:24:43;99820.88;;;7.52;66.65
28310;BME280;15571;50.974;13.936;2023-03-18T00:27:52;99819.13;;;7.49;67.27
28310;BME280;15571;50.974;13.936;2023-03-18T00:31:00;99816.50;;;7.46;67.15
28310;BME280;15571;50.974;13.936;2023-03-18T00:34:04;99821.75;;;7.43;67.24
28310;BME280;15571;50.974;13.936;2023-03-18T00:37:10;99820.88;;;7.41;67.06
28310;BME280;15571;50.974;13.936;2023-03-18T00:40:28;99824.34;;;7.40;66.77
28310;BME280;15571;50.974;13.936;2023-03-18T00:43:45;99828.69;;;7.41;67.21
28310;BME280;15571;50.974;13.936;2023-03-18T00:46:51;99830.41;;;7.39;66.92
28310;BME280;15571;50.974;13.936;2023-03-18T00:49:53;99833.91;;;7.39;66.99
28310;BME280;15571;50.974;13.936;2023-03-18T00:52:55;99828.69;;;7.39;67.50
28310;BME280;15571;50.974;13.936;2023-03-18T00:55:59;99819.13;;;7.37;67.72
28310;BME280;15571;50.974;13.936;2023-03-18T00:59:07;99822.59;;;7.34;65.76
28310;BME280;15571;50.974;13.936;2023-03-18T01:02:12;99817.38;;;7.36;67.09
28310;BME280;15571;50.974;13.936;2023-03-18T01:05:17;99808.72;;;7.34;66.83
28310;BME280;15571;50.974;13.936;2023-03-18T01:08:21;99800.03;;;7.33;66.99
28310;BME280;15571;50.974;13.936;2023-03-18T01:11:27;99801.78;;;7.32;67.04
28310;BME280;15571;50.974;13.936;2023-03-18T01:14:32;99803.50;;;7.30;66.43
28310;BME280;15571;50.974;13.936;2023-03-18T01:17:36;99803.50;;;7.30;66.86
28310;BME280;15571;50.974;13.936;2023-03-18T01:20:38;99803.50;;;7.30;66.95
28310;BME280;15571;50.974;13.936;2023-03-18T01:23:42;99801.75;;;7.29;67.32
28310;BME280;15571;50.974;13.936;2023-03-18T01:26:45;99800.00;;;7.25;66.81
28310;BME280;15571;50.974;13.936;2023-03-18T01:29:49;99796.53;;;7.26;67.45
28310;BME280;15571;50.974;13.936;2023-03-18T01:32:55;99793.94;;;7.26;68.05
28310;BME280;15571;50.974;13.936;2023-03-18T01:35:58;99801.75;;;7.26;68.43
28310;BME280;15571;50.974;13.936;2023-03-18T01:39:07;99796.56;;;7.23;68.42
28310;BME280;15571;50.974;13.936;2023-03-18T01:42:10;99797.41;;;7.25;68.26
28310;BME280;15571;50.974;13.936;2023-03-18T01:45:18;99790.47;;;7.24;68.49
28310;BME280;15571;50.974;13.936;2023-03-18T01:48:29;99796.56;;;7.23;68.48
28310;BME280;15571;50.974;13.936;2023-03-18T01:51:38;99791.31;;;7.22;67.39
28310;BME280;15571;50.974;13.936;2023-03-18T01:54:45;99788.75;;;7.23;67.96
28310;BME280;15571;50.974;13.936;2023-03-18T01:57:50;99787.88;;;7.21;67.79
28310;BME280;15571;50.974;13.936;2023-03-18T02:00:56;99785.25;;;7.21;67.54
28310;BME280;15571;50.974;13.936;2023-03-18T02:04:01;99792.19;;;7.21;67.83
28310;BME280;15571;50.974;13.936;2023-03-18T02:07:05;99790.47;;;7.20;67.18
28310;BME280;15571;50.974;13.936;2023-03-18T02:10:15;99789.59;;;7.18;67.73
28310;BME280;15571;50.974;13.936;2023-03-18T02:13:19;99787.88;;;7.15;67.11
28310;BME280;15571;50.974;13.936;2023-03-18T02:16:26;99786.09;;;7.17;67.59
28310;BME280;15571;50.974;13.936;2023-03-18T02:19:38;99792.19;;;7.14;67.96
28310;BME280;15571;50.974;13.936;2023-03-18T02:22:48;99788.72;;;7.12;68.51
28310;BME280;15571;50.974;13.936;2023-03-18T02:25:52;99790.47;;;7.12;68.29
28310;BME280;15571;50.974;13.936;2023-03-18T02:29:00;99798.25;;;7.12;67.91
28310;BME280;15571;50.974;13.936;2023-03-18T02:32:12;99803.47;;;7.12;68.32
28310;BME280;15571;50.974;13.936;2023-03-18T02:35:15;99795.63;;;7.10;68.03
28310;BME280;15571;50.974;13.936;2023-03-18T02:38:17;99801.72;;;7.11;67.94
28310;BME280;15571;50.974;13.936;2023-03-18T02:41:22;99795.63;;;7.10;68.55
28310;BME280;15571;50.974;13.936;2023-03-18T02:44:28;99801.72;;;7.08;68.47
28310;BME280;15571;50.974;13.936;2023-03-18T02:47:51;99800.84;;;7.06;67.39
28310;BME280;15571;50.974;13.936;2023-03-18T02:50:54;99803.44;;;7.09;68.45
28310;BME280;15571;50.974;13.936;2023-03-18T02:53:59;99809.53;;;7.05;68.64
28310;BME280;15571;50.974;13.936;2023-03-18T02:57:03;99815.59;;;7.04;68.48
28310;BME280;15571;50.974;13.936;2023-03-18T03:00:11;99815.56;;;7.02;68.14
28310;BME280;15571;50.974;13.936;2023-03-18T03:03:14;99829.47;;;7.03;68.36
28310;BME280;15571;50.974;13.936;2023-03-18T03:06:16;99822.56;;;7.05;68.80
28310;BME280;15571;50.974;13.936;2023-03-18T03:09:19;99834.66;;;7.06;68.91
28310;BME280;15571;50.974;13.936;2023-03-18T03:12:22;99835.56;;;7.05;68.52
28310;BME280;15571;50.974;13.936;2023-03-18T03:15:36;99839.03;;;7.04;68.51
28310;BME280;15571;50.974;13.936;2023-03-18T03:18:39;99834.69;;;7.03;68.99
28310;BME280;15571;50.974;13.936;2023-03-18T03:21:47;99843.34;;;7.01;68.86
28310;BME280;15571;50.974;13.936;2023-03-18T03:24:52;99852.88;;;7.01;69.15
28310;BME280;15571;50.974;13.936;2023-03-18T03:27:57;99845.94;;;7.01;69.60
28310;BME280;15571;50.974;13.936;2023-03-18T03:31:01;99849.44;;;6.99;69.00
28310;BME280;15571;50.974;13.936;2023-03-18T03:34:06;99852.88;;;6.98;69.57
28310;BME280;15571;50.974;13.936;2023-03-18T03:37:10;99855.50;;;6.98;69.59
28310;BME280;15571;50.974;13.936;2023-03-18T03:40:17;99850.25;;;6.96;70.08
28310;BME280;15571;50.974;13.936;2023-03-18T03:43:24;99850.25;;;6.95;70.22
28310;BME280;15571;50.974;13.936;2023-03-18T03:46:33;99859.81;;;6.96;70.15
28310;BME280;15571;50.974;13.936;2023-03-18T03:49:36;99853.75;;;6.95;70.45
28310;BME280;15571;50.974;13.936;2023-03-18T03:52:43;99858.06;;;6.96;70.06
28310;BME280;15571;50.974;13.936;2023-03-18T03:55:46;99863.28;;;6.96;70.51
28310;BME280;15571;50.974;13.936;2023-03-18T03:58:51;99868.47;;;6.95;70.52
28310;BME280;15571;50.974;13.936;2023-03-18T04:01:59;99871.06;;;6.90;69.40
28310;BME280;15571;50.974;13.936;2023-03-18T04:05:05;99871.06;;;6.90;70.45
28310;BME280;15571;50.974;13.936;2023-03-18T04:08:08;99876.25;;;6.87;70.85
28310;BME280;15571;50.974;13.936;2023-03-18T04:11:12;99878.00;;;6.90;70.99
28310;BME280;15571;50.974;13.936;2023-03-18T04:14:16;99878.00;;;6.87;72.00
28310;BME280;15571;50.974;13.936;2023-03-18T04:17:20;99891.84;;;6.87;72.31
28310;BME280;15571;50.974;13.936;2023-03-18T04:20:25;99888.41;;;6.85;71.53
28310;BME280;15571;50.974;13.936;2023-03-18T04:23:30;99888.38;;;6.82;71.86
28310;BME280;15571;50.974;13.936;2023-03-18T04:26:35;99890.13;;;6.83;72.41
28310;BME280;15571;50.974;13.936;2023-03-18T04:29:40;99890.09;;;6.80;72.55
28310;BME280;15571;50.974;13.936;2023-03-18T04:32:46;99892.69;;;6.81;73.13
28310;BME280;15571;50.974;13.936;2023-03-18T04:35:54;99895.31;;;6.80;73.54
28310;BME280;15571;50.974;13.936;2023-03-18T04:39:00;99894.44;;;6.79;73.74
28310;BME280;15571;50.974;13.936;2023-03-18T04:42:03;99907.44;;;6.78;73.62
28310;BME280;15571;50.974;13.936;2023-03-18T04:45:13;99909.16;;;6.74;73.02
28310;BME280;15571;50.974;13.936;2023-03-18T04:48:17;99908.28;;;6.70;72.84
28310;BME280;15571;50.974;13.936;2023-03-18T04:51:28;99911.72;;;6.69;72.56
28310;BME280;15571;50.974;13.936;2023-03-18T04:54:31;99915.19;;;6.67;72.51
28310;BME280;15571;50.974;13.936;2023-03-18T04:57:37;99919.50;;;6.66;72.06
28310;BME280;15571;50.974;13.936;2023-03-18T05:00:49;99912.59;;;6.65;72.59
28310;BME280;15571;50.974;13.936;2023-03-18T05:04:05;99916.91;;;6.65;73.14
28310;BME280;15571;50.974;13.936;2023-03-18T05:07:21;99917.75;;;6.64;73.32
28310;BME280;15571;50.974;13.936;2023-03-18T05:10:32;99917.78;;;6.61;73.98
28310;BME280;15571;50.974;13.936;2023-03-18T05:13:35;99914.28;;;6.60;74.00
28310;BME280;15571;50.974;13.936;2023-03-18T05:16:42;99919.47;;;6.59;74.23
28310;BME280;15571;50.974;13.936;2023-03-18T05:19:48;99913.41;;;6.55;73.84
28310;BME280;15571;50.974;13.936;2023-03-18T05:22:54;99917.75;;;6.58;74.24
28310;BME280;15571;50.974;13.936;2023-03-18T05:26:26;99919.44;;;6.57;74.69
28310;BME280;15571;50.974;13.936;2023-03-18T05:29:30;99915.97;;;6.53;74.56
28310;BME280;15571;50.974;13.936;2023-03-18T05:32:45;99914.25;;;6.54;75.20
28310;BME280;15571;50.974;13.936;2023-03-18T05:35:56;99918.56;;;6.52;75.60
28310;BME280;15571;50.974;13.936;2023-03-18T05:39:09;99923.78;;;6.50;75.87
28310;BME280;15571;50.974;13.936;2023-03-18T05:42:12;99922.88;;;6.50;75.80
28310;BME280;15571;50.974;13.936;2023-03-18T05:45:16;99936.78;;;6.52;76.42
28310;BME280;15571;50.974;13.936;2023-03-18T05:48:29;99936.78;;;6.52;77.05
28310;BME280;15571;50.974;13.936;2023-03-18T05:51:42;99933.28;;;6.50;77.53
28310;BME280;15571;50.974;13.936;2023-03-18T05:54:55;99930.66;;;6.47;77.83
28310;BME280;15571;50.974;13.936;2023-03-18T05:58:03;99941.94;;;6.47;78.10
28310;BME280;15571;50.974;13.936;2023-03-18T06:01:10;99936.75;;;6.46;78.48
28310;BME280;15571;50.974;13.936;2023-03-18T06:04:21;99941.94;;;6.46;78.99
28310;BME280;15571;50.974;13.936;2023-03-18T06:07:28;99935.84;;;6.45;79.24
28310;BME280;15571;50.974;13.936;2023-03-18T06:10:30;99935.84;;;6.45;79.13
28310;BME280;15571;50.974;13.936;2023-03-18T06:13:34;99938.47;;;6.45;79.23
28310;BME280;15571;50.974;13.936;2023-03-18T06:16:37;99940.19;;;6.45;79.75
28310;BME280;15571;50.974;13.936;2023-03-18T06:19:40;99941.06;;;6.45;79.50
28310;BME280;15571;50.974;13.936;2023-03-18T06:22:49;99939.34;;;6.46;79.73
28310;BME280;15571;50.974;13.936;2023-03-18T06:25:51;99948.88;;;6.48;80.12
28310;BME280;15571;50.974;13.936;2023-03-18T06:29:00;99944.53;;;6.49;80.60
28310;BME280;15571;50.974;13.936;2023-03-18T06:32:14;99947.19;;;6.52;80.50
28310;BME280;15571;50.974;13.936;2023-03-18T06:35:22;99953.25;;;6.54;80.56
28310;BME280;15571;50.974;13.936;2023-03-18T06:38:32;99943.72;;;6.53;80.03
28310;BME280;15571;50.974;13.936;2023-03-18T06:41:36;99941.97;;;6.53;80.18
28310;BME280;15571;50.974;13.936;2023-03-18T06:45:15;99945.47;;;6.57;80.76
28310;BME280;15571;50.974;13.936;2023-03-18T06:48:35;99955.03;;;6.63;81.10
28310;BME280;15571;50.974;13.936;2023-03-18T06:51:42;99955.06;;;6.64;81.27
28310;BME280;15571;50.974;13.936;2023-03-18T06:54:48;99945.50;;;6.66;81.91
28310;BME280;15571;50.974;13.936;2023-03-18T06:57:56;99956.81;;;6.68;82.19
28310;BME280;15571;50.974;13.936;2023-03-18T07:01:10;99963.75;;;6.71;82.02
28310;BME280;15571;50.974;13.936;2023-03-18T07:04:17;99960.28;;;6.72;82.41
28310;BME280;15571;50.974;13.936;2023-03-18T07:07:21;99957.72;;;6.75;82.45
28310;BME280;15571;50.974;13.936;2023-03-18T07:10:29;99953.41;;;6.79;82.37
28310;BME280;15571;50.974;13.936;2023-03-18T07:13:43;99949.94;;;6.80;82.09
28310;BME280;15571;50.974;13.936;2023-03-18T07:17:02;99956.03;;;6.82;82.18
28310;BME280;15571;50.974;13.936;2023-03-18T07:20:04;99957.75;;;6.86;82.08
28310;BME280;15571;50.974;13.936;2023-03-18T07:23:10;99958.69;;;6.93;82.39
28310;BME280;15571;50.974;13.936;2023-03-18T07:26:15;99960.41;;;6.94;81.44
28310;BME280;15571;50.974;13.936;2023-03-18T07:29:18;99965.69;;;7.00;81.20
28310;BME280;15571;50.974;13.936;2023-03-18T07:32:20;99966.56;;;7.04;81.41
28310;BME280;15571;50.974;13.936;2023-03-18T07:35:24;99967.44;;;7.09;81.68
28310;BME280;15571;50.974;13.936;2023-03-18T07:38:27;99957.03;;;7.13;81.28
28310;BME280;15571;50.974;13.936;2023-03-18T07:41:33;99957.94;;;7.20;81.30
28310;BME280;15571;50.974;13.936;2023-03-18T07:44:35;99956.22;;;7.22;81.45
28310;BME280;15571;50.974;13.936;2023-03-18T07:47:38;99960.59;;;7.28;80.89
28310;BME280;15571;50.974;13.936;2023-03-18T07:50:42;99961.47;;;7.35;80.31
28310;BME280;15571;50.974;13.936;2023-03-18T07:53:47;99950.19;;;7.40;80.39
28310;BME280;15571;50.974;13.936;2023-03-18T07:56:53;99947.63;;;7.48;79.84
28310;BME280;15571;50.974;13.936;2023-03-18T07:59:56;99950.25;;;7.57;80.38
28310;BME280;15571;50.974;13.936;2023-03-18T08:03:02;99959.81;;;7.66;79.16
28310;BME280;15571;50.974;13.936;2023-03-18T08:06:05;99947.66;;;7.76;79.04
28310;BME280;15571;50.974;13.936;2023-03-18T08:09:07;99949.44;;;7.88;77.35
28310;BME280;15571;50.974;13.936;2023-03-18T08:12:15;99935.53;;;7.97;77.13
28310;BME280;15571;50.974;13.936;2023-03-18T08:15:20;99937.28;;;8.02;76.56
28310;BME280;15571;50.974;13.936;2023-03-18T08:18:24;99942.50;;;8.07;74.81
28310;BME280;15571;50.974;13.936;2023-03-18T08:21:26;99940.75;;;8.15;75.51
28310;BME280;15571;50.974;13.936;2023-03-18T08:24:30;99937.28;;;8.19;75.16
28310;BME280;15571;50.974;13.936;2023-03-18T08:27:34;99943.38;;;8.21;73.83
28310;BME280;15571;50.974;13.936;2023-03-18T08:30:38;99956.41;;;8.28;74.01
28310;BME280;15571;50.974;13.936;2023-03-18T08:33:44;99943.34;;;8.32;75.30
28310;BME280;15571;50.974;13.936;2023-03-18T08:36:51;99960.72;;;8.35;73.90
28310;BME280;15571;50.974;13.936;2023-03-18T08:39:55;99949.44;;;8.39;74.18
28310;BME280;15571;50.974;13.936;2023-03-18T08:43:01;99943.31;;;8.43;74.67
28310;BME280;15571;50.974;13.936;2023-03-18T08:46:05;99941.63;;;8.48;74.23
28310;BME280;15571;50.974;13.936;2023-03-18T08:49:07;99940.75;;;8.52;74.47
28310;BME280;15571;50.974;13.936;2023-03-18T08:52:10;99945.97;;;8.57;75.77
28310;BME280;15571;50.974;13.936;2023-03-18T08:55:12;99945.97;;;8.62;75.40
28310;BME280;15571;50.974;13.936;2023-03-18T08:58:18;99946.81;;;8.67;73.89
28310;BME280;15571;50.974;13.936;2023-03-18T09:01:21;99952.88;;;8.75;74.36
28310;BME280;15571;50.974;13.936;2023-03-18T09:04:23;99956.38;;;8.71;75.10
28310;BME280;15571;50.974;13.936;2023-03-18T09:07:29;99958.97;;;8.80;75.83
28310;BME280;15571;50.974;13.936;2023-03-18T09:10:32;99968.50;;;8.87;75.95
28310;BME280;15571;50.974;13.936;2023-03-18T09:13:40;99959.81;;;8.88;75.97
28310;BME280;15571;50.974;13.936;2023-03-18T09:16:56;99968.50;;;8.97;76.01
28310;BME280;15571;50.974;13.936;2023-03-18T09:19:59;99962.41;;;8.98;76.52
28310;BME280;15571;50.974;13.936;2023-03-18T09:23:02;99975.41;;;9.07;77.44
28310;BME280;15571;50.974;13.936;2023-03-18T09:26:04;99963.19;;;9.12;77.50
28310;BME280;15571;50.974;13.936;2023-03-18T09:29:11;99953.59;;;9.19;77.68
28310;BME280;15571;50.974;13.936;2023-03-18T09:32:13;99945.75;;;9.27;77.77
28310;BME280;15571;50.974;13.936;2023-03-18T09:35:15;99952.69;;;9.31;78.46
28310;BME280;15571;50.974;13.936;2023-03-18T09:38:19;99946.53;;;9.44;77.98
28310;BME280;15571;50.974;13.936;2023-03-18T09:41:27;99950.88;;;9.45;77.92
28310;BME280;15571;50.974;13.936;2023-03-18T09:44:34;99951.69;;;9.55;77.74
28310;BME280;15571;50.974;13.936;2023-03-18T09:47:46;99956.88;;;9.61;77.18
28310;BME280;15571;50.974;13.936;2023-03-18T09:50:56;99949.88;;;9.68;78.50
28310;BME280;15571;50.974;13.936;2023-03-18T09:54:05;99944.63;;;9.71;76.91
28310;BME280;15571;50.974;13.936;2023-03-18T09:57:10;99945.47;;;9.76;74.13
28310;BME280;15571;50.974;13.936;2023-03-18T10:00:19;99943.66;;;9.85;75.69
28310;BME280;15571;50.974;13.936;2023-03-18T10:03:27;99948.00;;;9.90;75.32
28310;BME280;15571;50.974;13.936;2023-03-18T10:06:32;99940.06;;;10.01;76.12
28310;BME280;15571;50.974;13.936;2023-03-18T10:09:39;99946.09;;;10.09;75.38
28310;BME280;15571;50.974;13.936;2023-03-18T10:12:45;99947.75;;;10.21;74.10
28310;BME280;15571;50.974;13.936;2023-03-18T10:15:51;99943.28;;;10.31;73.81
28310;BME280;15571;50.974;13.936;2023-03-18T10:19:01;99945.91;;;10.37;74.08
28310;BME280;15571;50.974;13.936;2023-03-18T10:22:10;99941.41;;;10.52;75.31
28310;BME280;15571;50.974;13.936;2023-03-18T10:25:18;99936.06;;;10.61;73.53
28310;BME280;15571;50.974;13.936;2023-03-18T10:31:56;99936.75;;;10.79;75.32
28310;BME280;15571;50.974;13.936;2023-03-18T10:35:07;99940.19;;;10.87;75.13
28310;BME280;15571;50.974;13.936;2023-03-18T10:38:19;99947.03;;;10.96;72.86
28310;BME280;15571;50.974;13.936;2023-03-18T10:41:29;99944.41;;;10.99;71.78
28310;BME280;15571;50.974;13.936;2023-03-18T10:44:33;99945.13;;;11.09;70.44
28310;BME280;15571;50.974;13.936;2023-03-18T10:47:43;99942.50;;;11.12;71.66
28310;BME280;15571;50.974;13.936;2023-03-18T10:50:48;99944.19;;;11.16;68.21
28310;BME280;15571;50.974;13.936;2023-03-18T10:53:56;99947.53;;;11.27;69.25
28310;BME280;15571;50.974;13.936;2023-03-18T10:57:09;99947.53;;;11.27;70.12
28310;BME280;15571;50.974;13.936;2023-03-18T11:00:19;99947.41;;;11.36;69.65
28310;BME280;15571;50.974;13.936;2023-03-18T11:03:33;99942.97;;;11.45;70.93
28310;BME280;15571;50.974;13.936;2023-03-18T11:06:44;99948.06;;;11.52;70.82
28310;BME280;15571;50.974;13.936;2023-03-18T11:09:49;99947.13;;;11.58;71.50
28310;BME280;15571;50.974;13.936;2023-03-18T11:12:54;99941.81;;;11.64;71.32
28310;BME280;15571;50.974;13.936;2023-03-18T11:16:02;99942.56;;;11.71;69.59
28310;BME280;15571;50.974;13.936;2023-03-18T11:19:20;99947.72;;;11.77;70.08
28310;BME280;15571;50.974;13.936;2023-03-18T11:22:24;99950.34;;;11.76;69.80
28310;BME280;15571;50.974;13.936;2023-03-18T11:25:30;99952.84;;;11.87;69.59
28310;BME280;15571;50.974;13.936;2023-03-18T11:28:33;99954.53;;;11.89;69.37
28310;BME280;15571;50.974;13.936;2023-03-18T11:31:47;99946.63;;;11.92;68.87
28310;BME280;15571;50.974;13.936;2023-03-18T11:35:00;99947.50;;;11.94;67.15
28310;BME280;15571;50.974;13.936;2023-03-18T11:38:12;99943.94;;;11.98;68.62
28310;BME280;15571;50.974;13.936;2023-03-18T11:41:21;99950.00;;;12.04;69.34
28310;BME280;15571;50.974;13.936;2023-03-18T11:44:29;99952.63;;;12.04;67.60
28310;BME280;15571;50.974;13.936;2023-03-18T11:47:32;99953.47;;;12.04;66.54
28310;BME280;15571;50.974;13.936;2023-03-18T11:50:44;99956.91;;;12.08;67.78
28310;BME280;15571;50.974;13.936;2023-03-18T11:54:02;99942.94;;;12.06;67.43
28310;BME280;15571;50.974;13.936;2023-03-18T11:57:10;99951.59;;;12.14;66.97
28310;BME280;15571;50.974;13.936;2023-03-18T12:00:20;99956.72;;;12.20;68.36
28310;BME280;15571;50.974;13.936;2023-03-18T12:03:34;99950.59;;;12.21;67.93
28310;BME280;15571;50.974;13.936;2023-03-18T12:06:52;99940.91;;;12.25;69.67
28310;BME280;15571;50.974;13.936;2023-03-18T12:09:59;99946.09;;;12.26;69.24
28310;BME280;15571;50.974;13.936;2023-03-18T12:13:11;99940.81;;;12.29;68.04
28310;BME280;15571;50.974;13.936;2023-03-18T12:16:17;99938.09;;;12.34;67.49
28310;BME280;15571;50.974;13.936;2023-03-18T12:23:00;99943.34;;;12.34;63.40
28310;BME280;15571;50.974;13.936;2023-03-18T12:26:04;99938.91;;;12.38;63.82
28310;BME280;15571;50.974;13.936;2023-03-18T12:32:38;99928.34;;;12.44;65.69
28310;BME280;15571;50.974;13.936;2023-03-18T12:35:48;99933.50;;;12.47;67.57
28310;BME280;15571;50.974;13.936;2023-03-18T12:39:05;99922.97;;;12.50;66.34
28310;BME280;15571;50.974;13.936;2023-03-18T12:42:15;99925.50;;;12.55;67.24
28310;BME280;15571;50.974;13.936;2023-03-18T12:45:18;99929.88;;;12.54;67.17
28310;BME280;15571;50.974;13.936;2023-03-18T12:48:21;99929.81;;;12.57;67.85
28310;BME280;15571;50.974;13.936;2023-03-18T12:51:28;99928.81;;;12.65;67.38
28310;BME280;15571;50.974;13.936;2023-03-18T12:54:37;99925.44;;;12.58;64.77
28310;BME280;15571;50.974;13.936;2023-03-18T12:57:43;99925.38;;;12.61;66.04
28310;BME280;15571;50.974;13.936;2023-03-18T13:18:46;99921.66;;;12.73;65.36
28310;BME280;15571;50.974;13.936;2023-03-18T13:21:58;99929.41;;;12.79;65.98
28310;BME280;15571;50.974;13.936;2023-03-18T13:25:10;99919.81;;;12.78;65.70
28310;BME280;15571;50.974;13.936;2023-03-18T13:31:41;99917.19;;;12.78;66.21
28310;BME280;15571;50.974;13.936;2023-03-18T13:35:08;99916.31;;;12.77;67.54
28310;BME280;15571;50.974;13.936;2023-03-18T13:38:28;99922.38;;;12.81;67.37
28310;BME280;15571;50.974;13.936;2023-03-18T13:41:56;99916.19;;;12.84;68.37
28310;BME280;15571;50.974;13.936;2023-03-18T13:45:09;99906.63;;;12.81;69.87
28310;BME280;15571;50.974;13.936;2023-03-18T13:48:20;99903.09;;;12.82;69.12
28310;BME280;15571;50.974;13.936;2023-03-18T13:54:43;99898.78;;;12.78;68.87
28310;BME280;15571;50.974;13.936;2023-03-18T13:57:46;99906.63;;;12.81;69.43
28310;BME280;15571;50.974;13.936;2023-03-18T14:01:12;99900.50;;;12.81;70.26
28310;BME280;15571;50.974;13.936;2023-03-18T14:04:25;99896.97;;;12.83;69.55
28310;BME280;15571;50.974;13.936;2023-03-18T14:07:33;99891.03;;;12.72;68.21
28310;BME280;15571;50.974;13.936;2023-03-18T14:10:48;99884.06;;;12.71;68.69
28310;BME280;15571;50.974;13.936;2023-03-18T14:13:52;99884.06;;;12.71;67.96
28310;BME280;15571;50.974;13.936;2023-03-18T14:16:54;99890.16;;;12.71;69.30
28310;BME280;15571;50.974;13.936;2023-03-18T14:20:14;99888.41;;;12.72;68.18
28310;BME280;15571;50.974;13.936;2023-03-18T14:23:38;99891.94;;;12.69;69.58
28310;BME280;15571;50.974;13.936;2023-03-18T14:26:47;99885.78;;;12.72;70.37
28310;BME280;15571;50.974;13.936;2023-03-18T14:37:19;99880.66;;;12.66;72.09
28310;BME280;15571;50.974;13.936;2023-03-18T14:40:27;99878.91;;;12.65;71.73
28310;BME280;15571;50.974;13.936;2023-03-18T14:43:32;99876.38;;;12.61;70.32
28310;BME280;15571;50.974;13.936;2023-03-18T14:46:38;99887.75;;;12.60;71.22
28310;BME280;15571;50.974;13.936;2023-03-18T14:49:42;99874.59;;;12.64;71.64
28310;BME280;15571;50.974;13.936;2023-03-18T14:52:50;99875.47;;;12.63;74.07
28310;BME280;15571;50.974;13.936;2023-03-18T14:55:53;99868.41;;;12.65;73.87
28310;BME280;15571;50.974;13.936;2023-03-18T14:59:00;99870.19;;;12.64;74.30
28310;BME280;15571;50.974;13.936;2023-03-18T15:02:03;99870.22;;;12.63;74.56
28310;BME280;15571;50.974;13.936;2023-03-18T15:05:08;99871.97;;;12.62;75.08
28310;BME280;15571;50.974;13.936;2023-03-18T15:08:14;99871.91;;;12.65;74.78
28310;BME280;15571;50.974;13.936;2023-03-18T15:11:17;99869.28;;;12.65;75.33
28310;BME280;15571;50.974;13.936;2023-03-18T15:14:26;99858.00;;;12.60;76.70
28310;BME280;15571;50.974;13.936;2023-03-18T15:17:29;99864.13;;;12.59;77.61
28310;BME280;15571;50.974;13.936;2023-03-18T15:20:32;99868.50;;;12.61;76.90
28310;BME280;15571;50.974;13.936;2023-03-18T15:23:37;99872.91;;;12.59;78.25
28310;BME280;15571;50.974;13.936;2023-03-18T15:26:44;99866.84;;;12.54;78.56
28310;BME280;15571;50.974;13.936;2023-03-18T15:29:52;99862.53;;;12.52;77.19
28310;BME280;15571;50.974;13.936;2023-03-18T15:32:59;99867.81;;;12.50;76.80
28310;BME280;15571;50.974;13.936;2023-03-18T15:36:11;99868.66;;;12.52;77.02
28310;BME280;15571;50.974;13.936;2023-03-18T15:39:17;99880.06;;;12.50;76.06
28310;BME280;15571;50.974;13.936;2023-03-18T15:42:19;99881.00;;;12.47;76.63
28310;BME280;15571;50.974;13.936;2023-03-18T15:45:26;99885.44;;;12.43;76.98
28310;BME280;15571;50.974;13.936;2023-03-18T15:48:29;99886.31;;;12.44;77.22
28310;BME280;15571;50.974;13.936;2023-03-18T15:51:34;99882.88;;;12.42;77.28
28310;BME280;15571;50.974;13.936;2023-03-18T15:54:41;99880.28;;;12.39;77.56
28310;BME280;15571;50.974;13.936;2023-03-18T15:57:48;99895.16;;;12.40;77.23
28310;BME280;15571;50.974;13.936;2023-03-18T16:00:58;99891.72;;;12.35;77.46
28310;BME280;15571;50.974;13.936;2023-03-18T16:04:01;99890.91;;;12.31;77.00
28310;BME280;15571;50.974;13.936;2023-03-18T16:07:04;99901.41;;;12.31;77.43
28310;BME280;15571;50.974;13.936;2023-03-18T16:10:16;99903.22;;;12.27;77.78
28310;BME280;15571;50.974;13.936;2023-03-18T16:13:23;99904.13;;;12.26;78.45
28310;BME280;15571;50.974;13.936;2023-03-18T16:16:30;99907.72;;;12.22;79.34
28310;BME280;15571;50.974;13.936;2023-03-18T16:19:37;99919.09;;;12.21;79.38
28310;BME280;15571;50.974;13.936;2023-03-18T16:22:39;99925.34;;;12.14;80.82
28310;BME280;15571;50.974;13.936;2023-03-18T16:25:42;99927.97;;;12.12;81.49
28310;BME280;15571;50.974;13.936;2023-03-18T16:28:51;99924.53;;;12.09;82.46
28310;BME280;15571;50.974;13.936;2023-03-18T16:31:58;99929.00;;;12.04;83.45
28310;BME280;15571;50.974;13.936;2023-03-18T16:35:02;99930.75;;;12.05;83.71
28310;BME280;15571;50.974;13.936;2023-03-18T16:38:10;99922.91;;;12.00;84.69
28310;BME280;15571;50.974;13.936;2023-03-18T16:41:16;99929.09;;;11.97;84.33
28310;BME280;15571;50.974;13.936;2023-03-18T16:44:21;99937.81;;;11.96;83.99
28310;BME280;15571;50.974;13.936;2023-03-18T16:47:25;99927.38;;;11.92;83.33
28310;BME280;15571;50.974;13.936;2023-03-18T16:50:29;99933.53;;;11.91;82.88
28310;BME280;15571;50.974;13.936;2023-03-18T16:53:32;99937.97;;;11.87;82.68
28310;BME280;15571;50.974;13.936;2023-03-18T16:56:35;99949.38;;;11.84;82.21
28310;BME280;15571;50.974;13.936;2023-03-18T16:59:41;99952.06;;;11.80;82.02
28310;BME280;15571;50.974;13.936;2023-03-18T17:02:46;99948.59;;;11.78;82.47
28310;BME280;15571;50.974;13.936;2023-03-18T17:05:49;99949.53;;;11.72;82.72